createdAt,value
2023-05-10T00:01:21.169Z,101443.47
2023-05-10T00:03:48.726Z,101441.75
2023-05-10T00:06:15.962Z,101438.22
2023-05-10T00:08:43.583Z,101440.94
2023-05-10T00:11:16.440Z,101446.25
2023-05-10T00:13:43.759Z,101445.41
2023-05-10T00:16:10.846Z,101440.16
2023-05-10T00:18:38.448Z,101440.25
2023-05-10T00:21:06.153Z,101441.16
2023-05-10T00:23:33.521Z,101434.16
2023-05-10T00:26:00.666Z,101437.63
2023-05-10T00:28:29.933Z,101428.88
2023-05-10T00:30:57.260Z,101427.97
2023-05-10T00:33:24.739Z,101435.97
2023-05-10T00:35:51.946Z,101433.38
2023-05-10T00:38:19.436Z,101436.94
2023-05-10T00:40:46.460Z,101435.19
2023-05-10T00:43:13.869Z,101429.91
2023-05-10T00:45:41.433Z,101439.66
2023-05-10T00:48:09.689Z,101429.97
2023-05-10T00:50:36.793Z,101430.03
2023-05-10T00:53:04.755Z,101423.84
2023-05-10T00:55:32.237Z,101423.94
2023-05-10T00:57:59.635Z,101426.63
2023-05-10T01:00:29.869Z,101423.13
2023-05-10T01:02:57.353Z,101417.91
2023-05-10T01:05:24.625Z,101424.06
2023-05-10T01:07:52.080Z,101422.34
2023-05-10T01:10:19.679Z,101430.34
2023-05-10T01:12:48.811Z,101425.06
2023-05-10T01:15:17.782Z,101425.06
2023-05-10T01:17:48.394Z,101426.81
2023-05-10T01:20:16.546Z,101424.19
2023-05-10T01:22:53.303Z,101425.06
2023-05-10T01:25:55.748Z,101427.78
2023-05-10T01:28:45.343Z,101433.19
2023-05-10T01:31:39.434Z,101421.75
2023-05-10T01:34:12.915Z,101421.78
2023-05-10T01:36:46.724Z,101414.69
2023-05-10T01:39:35.863Z,101420.00
2023-05-10T01:42:18.885Z,101416.59
2023-05-10T01:44:52.250Z,101416.59
2023-05-10T01:47:44.303Z,101424.59
2023-05-10T01:50:17.067Z,101414.97
2023-05-10T01:52:49.231Z,101418.59
2023-05-10T01:55:19.232Z,101421.31
2023-05-10T01:57:52.134Z,101419.69
2023-05-10T02:00:21.373Z,101413.59
2023-05-10T02:02:50.852Z,101419.00
2023-05-10T02:05:20.087Z,101420.81
2023-05-10T02:07:48.460Z,101422.63
2023-05-10T02:10:17.173Z,101419.19
2023-05-10T02:12:47.188Z,101420.16
2023-05-10T02:15:22.062Z,101414.03
2023-05-10T02:17:49.869Z,101420.19
2023-05-10T02:20:19.769Z,101416.72
2023-05-10T02:22:50.313Z,101424.75
2023-05-10T02:25:20.469Z,101421.34
2023-05-10T02:27:49.426Z,101420.50
2023-05-10T02:30:18.119Z,101412.59
2023-05-10T02:32:48.031Z,101413.59
2023-05-10T02:35:16.351Z,101417.94
2023-05-10T02:37:45.112Z,101422.38
2023-05-10T02:40:15.826Z,101418.81
2023-05-10T02:42:45.873Z,101412.69
2023-05-10T02:45:16.260Z,101425.91
2023-05-10T02:47:43.435Z,101424.22
2023-05-10T02:50:11.328Z,101428.63
2023-05-10T02:52:43.552Z,101430.38
2023-05-10T02:55:14.288Z,101425.97
2023-05-10T02:57:47.366Z,101423.28
2023-05-10T03:00:15.271Z,101433.91
2023-05-10T03:02:43.431Z,101435.66
2023-05-10T03:05:10.840Z,101432.16
2023-05-10T03:07:37.883Z,101434.78
2023-05-10T03:10:06.338Z,101444.41
2023-05-10T03:12:41.817Z,101439.03
2023-05-10T03:15:09.062Z,101439.00
2023-05-10T03:17:47.341Z,101442.41
2023-05-10T03:20:25.503Z,101439.63
2023-05-10T03:22:57.467Z,101434.25
2023-05-10T03:25:25.913Z,101442.94
2023-05-10T03:27:53.444Z,101435.00
2023-05-10T03:30:22.638Z,101429.66
2023-05-10T03:32:49.671Z,101440.94
2023-05-10T03:35:17.165Z,101441.47
2023-05-10T03:37:44.260Z,101443.72
2023-05-10T03:40:11.978Z,101442.97
2023-05-10T03:42:40.100Z,101448.19
2023-05-10T03:45:09.404Z,101448.06
2023-05-10T03:47:36.389Z,101437.66
2023-05-10T03:50:04.128Z,101445.78
2023-05-10T03:52:31.170Z,101450.88
2023-05-10T03:54:58.460Z,101439.91
2023-05-10T03:57:25.937Z,101440.34
2023-05-10T03:59:53.257Z,101448.78
2023-05-10T04:02:21.055Z,101444.69
2023-05-10T04:04:49.372Z,101439.06
2023-05-10T04:07:16.561Z,101440.31
2023-05-10T04:09:44.141Z,101448.81
2023-05-10T04:12:11.276Z,101453.38
2023-05-10T04:14:38.904Z,101451.28
2023-05-10T04:17:09.233Z,101453.91
2023-05-10T04:19:38.204Z,101446.31
2023-05-10T04:22:05.701Z,101447.78
2023-05-10T04:24:33.667Z,101448.91
2023-05-10T04:27:00.730Z,101455.25
2023-05-10T04:29:29.712Z,101454.47
2023-05-10T04:32:00.758Z,101452.25
2023-05-10T04:34:36.004Z,101454.69
2023-05-10T04:37:06.524Z,101451.81
2023-05-10T04:39:34.842Z,101455.50
2023-05-10T04:42:04.034Z,101454.50
2023-05-10T04:44:31.975Z,101452.44
2023-05-10T05:16:34.204Z,101449.72
2023-05-10T05:19:22.595Z,101456.50
2023-05-10T05:27:46.180Z,101449.28
2023-05-10T05:30:26.936Z,101450.47
2023-05-10T05:35:59.282Z,101447.84
2023-05-10T05:50:04.806Z,101446.00
2023-05-10T05:52:47.623Z,101443.81
2023-05-10T05:57:59.055Z,101446.88
2023-05-10T06:00:43.087Z,101447.47
2023-05-10T06:09:37.210Z,101445.09
2023-05-10T06:23:40.922Z,101453.25
2023-05-10T06:28:51.289Z,101445.84
2023-05-10T06:31:34.382Z,101446.44
2023-05-10T06:34:12.185Z,101438.78
2023-05-10T06:36:40.537Z,101446.03
2023-05-10T06:39:11.535Z,101449.69
2023-05-10T06:41:58.664Z,101439.75
2023-05-10T06:44:29.861Z,101441.50
2023-05-10T06:52:27.644Z,101439.19
2023-05-10T07:00:53.252Z,101448.28
2023-05-10T07:03:25.401Z,101454.78
2023-05-10T07:05:57.099Z,101451.25
2023-05-10T07:08:28.271Z,101450.84
2023-05-10T07:11:07.224Z,101444.47
2023-05-10T07:13:35.830Z,101461.34
2023-05-10T07:16:04.396Z,101453.44
2023-05-10T07:18:40.310Z,101447.72
2023-05-10T07:21:07.817Z,101443.50
2023-05-10T07:23:36.284Z,101447.84
2023-05-10T07:26:03.523Z,101441.44
2023-05-10T07:28:41.720Z,101451.09
2023-05-10T07:31:12.026Z,101441.00
2023-05-10T07:33:40.347Z,101447.28
2023-05-10T07:36:09.334Z,101447.00
2023-05-10T07:38:40.919Z,101449.59
2023-05-10T07:41:08.423Z,101442.38
2023-05-10T07:43:38.827Z,101449.09
2023-05-10T07:46:06.646Z,101449.34
2023-05-10T07:48:35.767Z,101445.53
2023-05-10T07:51:07.452Z,101442.81
2023-05-10T07:53:35.338Z,101433.25
2023-05-10T07:56:30.646Z,101449.63
2023-05-10T07:59:02.300Z,101439.75
2023-05-10T08:01:33.668Z,101435.41
2023-05-10T08:04:03.129Z,101440.16
2023-05-10T08:06:34.383Z,101446.25
2023-05-10T08:09:02.709Z,101437.63
2023-05-10T08:11:29.759Z,101443.06
2023-05-10T08:13:59.252Z,101435.31
2023-05-10T08:16:32.379Z,101434.31
2023-05-10T08:19:00.693Z,101437.38
2023-05-10T08:21:28.083Z,101435.97
2023-05-10T08:23:56.020Z,101433.59
2023-05-10T08:26:23.708Z,101434.28
2023-05-10T08:28:51.703Z,101430.03
2023-05-10T08:31:20.810Z,101429.47
2023-05-10T08:33:48.932Z,101431.53
2023-05-10T08:36:31.102Z,101429.22
2023-05-10T08:39:04.532Z,101427.16
2023-05-10T08:41:38.005Z,101422.59
2023-05-10T08:44:09.344Z,101421.16
2023-05-10T08:46:44.027Z,101433.06
2023-05-10T08:49:20.308Z,101420.22
2023-05-10T08:51:56.741Z,101419.72
2023-05-10T08:54:30.302Z,101408.22
2023-05-10T08:56:58.504Z,101411.84
2023-05-10T08:59:26.868Z,101412.34
2023-05-10T09:01:57.007Z,101413.38
2023-05-10T09:04:27.713Z,101414.56
2023-05-10T09:06:55.771Z,101409.56
2023-05-10T09:09:24.802Z,101411.94
2023-05-10T09:11:54.485Z,101409.56
2023-05-10T09:17:08.554Z,101405.50
2023-05-10T09:22:18.834Z,101410.47
2023-05-10T09:24:47.572Z,101404.22
2023-05-10T09:27:15.556Z,101400.25
2023-05-10T09:29:44.809Z,101403.06
2023-05-10T09:32:13.870Z,101405.41
2023-05-10T09:35:00.435Z,101403.28
2023-05-10T09:37:38.188Z,101393.22
2023-05-10T09:40:12.322Z,101380.09
2023-05-10T09:42:54.518Z,101390.53
2023-05-10T09:45:24.240Z,101390.75
2023-05-10T09:47:53.549Z,101390.09
2023-05-10T09:50:21.737Z,101388.31
2023-05-10T09:53:04.114Z,101391.00
2023-05-10T09:55:37.616Z,101387.56
2023-05-10T10:28:41.178Z,101383.56
2023-05-10T10:31:35.479Z,101380.28
2023-05-10T10:34:11.251Z,101382.47
2023-05-10T10:39:51.530Z,101374.66
2023-05-10T11:42:08.911Z,101338.84
2023-05-10T11:44:48.562Z,101347.56
2023-05-10T11:47:17.727Z,101354.09
2023-05-10T11:49:46.131Z,101356.19
2023-05-10T11:52:13.598Z,101354.31
2023-05-10T11:54:55.428Z,101352.94
2023-05-10T11:57:28.259Z,101357.78
2023-05-10T11:59:58.613Z,101367.63
2023-05-10T12:02:26.353Z,101377.69
2023-05-10T12:04:54.352Z,101373.13
2023-05-10T12:07:21.607Z,101380.72
2023-05-10T12:10:09.750Z,101382.03
2023-05-10T12:12:40.901Z,101384.66
2023-05-10T12:15:23.532Z,101380.13
2023-05-10T12:36:43.409Z,101390.94
2023-05-10T12:39:11.441Z,101375.63
2023-05-10T12:41:40.041Z,101373.59
2023-05-10T12:44:08.714Z,101374.94
2023-05-10T12:46:36.791Z,101367.84
2023-05-10T12:49:09.762Z,101363.56
2023-05-10T12:51:39.881Z,101365.41
2023-05-10T12:54:12.786Z,101368.16
2023-05-10T12:56:42.759Z,101369.84
2023-05-10T12:59:10.418Z,101359.84
2023-05-10T13:01:42.719Z,101360.81
2023-05-10T13:04:14.662Z,101351.91
2023-05-10T13:06:46.513Z,101361.19
2023-05-10T13:09:15.527Z,101348.44
2023-05-10T13:11:45.782Z,101346.16
2023-05-10T13:14:14.647Z,101344.97
2023-05-10T13:19:32.343Z,101337.16
2023-05-10T13:21:59.771Z,101335.59
2023-05-10T13:24:29.023Z,101326.91
2023-05-10T13:26:56.602Z,101326.25
2023-05-10T13:29:35.364Z,101326.25
2023-05-10T13:32:04.209Z,101328.53
2023-05-10T13:35:00.178Z,101316.84
2023-05-10T13:37:28.450Z,101328.59
2023-05-10T13:39:56.268Z,101318.81
2023-05-10T13:42:24.778Z,101315.47
2023-05-10T13:44:51.842Z,101320.22
2023-05-10T13:47:19.829Z,101323.28
2023-05-10T13:49:46.964Z,101319.66
2023-05-10T13:52:14.897Z,101323.81
2023-05-10T13:54:42.744Z,101312.66
2023-05-10T13:57:10.365Z,101314.53
2023-05-10T13:59:37.651Z,101311.34
2023-05-10T14:02:05.364Z,101308.91
2023-05-10T14:04:32.924Z,101316.53
2023-05-10T14:07:01.204Z,101310.63
2023-05-10T14:09:28.546Z,101304.06
2023-05-10T14:12:00.705Z,101303.78
2023-05-10T14:14:29.538Z,101308.38
2023-05-10T14:16:58.063Z,101305.03
2023-05-10T14:19:25.500Z,101311.16
2023-05-10T14:21:56.358Z,101305.25
2023-05-10T14:24:23.728Z,101301.69
2023-05-10T14:29:36.380Z,101301.25
2023-05-10T14:32:06.665Z,101303.00
2023-05-10T14:34:35.707Z,101302.19
2023-05-10T14:37:05.051Z,101299.06
2023-05-10T14:42:26.820Z,101294.56
2023-05-10T14:44:59.473Z,101291.97
2023-05-10T14:47:31.543Z,101292.47
2023-05-10T14:49:59.803Z,101284.88
2023-05-10T14:53:05.139Z,101284.31
2023-05-10T14:55:32.443Z,101287.97
2023-05-10T14:58:00.568Z,101283.78
2023-05-10T15:00:34.556Z,101284.13
2023-05-10T15:03:16.773Z,101285.44
2023-05-10T15:05:44.868Z,101284.09
2023-05-10T15:08:17.078Z,101284.78
2023-05-10T15:10:44.910Z,101282.34
2023-05-10T15:13:13.780Z,101284.50
2023-05-10T15:15:42.143Z,101287.97
2023-05-10T15:26:58.932Z,101276.88
2023-05-10T15:38:14.466Z,101273.47
2023-05-10T15:43:53.319Z,101277.81
2023-05-10T15:50:16.755Z,101285.53
2023-05-10T15:53:00.310Z,101277.97
2023-05-10T18:52:47.667Z,101453.16
2023-05-10T18:55:15.217Z,101452.56
2023-05-10T18:57:45.303Z,101458.03
2023-05-10T19:00:12.962Z,101452.94
2023-05-10T19:02:44.898Z,101457.59
2023-05-10T19:05:15.778Z,101456.78
2023-05-10T19:07:49.316Z,101456.94
2023-05-10T19:10:16.788Z,101459.75
2023-05-10T19:12:44.517Z,101462.59
2023-05-10T19:15:12.343Z,101465.44
2023-05-10T19:17:40.566Z,101460.28
2023-05-10T19:20:08.708Z,101463.03
2023-05-10T19:23:09.209Z,101460.75
2023-05-10T19:25:37.179Z,101469.72
2023-05-10T19:28:04.666Z,101466.38
2023-05-10T19:30:31.956Z,101460.28
2023-05-10T19:32:59.950Z,101468.28
2023-05-10T19:35:38.305Z,101474.47
2023-05-10T19:38:06.382Z,101471.84
2023-05-10T19:40:34.165Z,101476.31
2023-05-10T19:43:02.143Z,101475.47
2023-05-10T19:45:29.351Z,101472.78
2023-05-10T19:47:56.985Z,101469.31
2023-05-10T19:50:24.228Z,101472.91
2023-05-10T19:52:51.818Z,101468.56
2023-05-10T19:55:31.238Z,101466.03
2023-05-10T19:58:02.172Z,101473.22
2023-05-10T20:00:31.925Z,101476.09
2023-05-10T20:02:59.985Z,101477.06
2023-05-10T20:05:27.610Z,101463.00
2023-05-10T20:07:55.162Z,101475.41
2023-05-10T20:10:23.820Z,101465.72
2023-05-10T20:12:53.394Z,101473.72
2023-05-10T20:15:23.019Z,101478.25
2023-05-10T20:17:52.124Z,101474.63
2023-05-10T20:20:20.302Z,101471.97
2023-05-10T20:22:49.603Z,101479.13
2023-05-10T20:25:18.262Z,101480.19
2023-05-10T20:27:50.999Z,101477.66
2023-05-10T20:30:20.341Z,101481.25
2023-05-10T20:32:48.426Z,101476.91
2023-05-10T20:35:15.532Z,101478.78
2023-05-10T20:37:43.806Z,101488.56
2023-05-10T20:40:11.474Z,101485.88
2023-05-10T20:42:38.995Z,101480.56
2023-05-10T20:45:06.626Z,101479.72
2023-05-10T20:47:34.260Z,101480.66
2023-05-10T20:50:01.424Z,101477.13
2023-05-10T20:52:28.758Z,101489.47
2023-05-10T20:54:56.139Z,101473.63
2023-05-10T20:57:23.565Z,101469.25
2023-05-10T20:59:51.254Z,101471.03
2023-05-10T21:02:18.670Z,101486.06
2023-05-10T21:04:46.302Z,101485.22
2023-05-10T21:07:13.878Z,101477.34
2023-05-10T21:09:42.639Z,101480.88
2023-05-10T21:12:10.395Z,101473.88
2023-05-10T21:14:37.349Z,101484.47
2023-05-10T21:17:05.172Z,101480.97
2023-05-10T21:19:32.394Z,101481.03
2023-05-10T21:22:00.123Z,101475.78
2023-05-10T21:24:27.231Z,101475.78
2023-05-10T21:26:54.764Z,101476.72
2023-05-10T21:29:21.792Z,101466.22
2023-05-10T21:31:49.352Z,101475.00
2023-05-10T21:34:18.023Z,101480.28
2023-05-10T21:36:45.761Z,101479.47
2023-05-10T21:39:12.813Z,101488.31
2023-05-10T21:41:40.377Z,101479.56
2023-05-10T21:44:07.521Z,101477.81
2023-05-10T21:46:34.893Z,101476.09
2023-05-10T21:49:01.868Z,101468.22
2023-05-10T21:51:29.365Z,101476.16
2023-05-10T21:53:59.353Z,101473.53
2023-05-10T21:56:27.509Z,101471.81
2023-05-10T21:58:54.873Z,101472.75
2023-05-10T22:01:22.276Z,101472.81
2023-05-10T22:03:49.376Z,101468.50
2023-05-10T22:06:16.826Z,101473.88
2023-05-10T22:08:44.274Z,101470.41
2023-05-10T22:11:11.872Z,101473.06
2023-05-10T22:13:38.857Z,101471.31
2023-05-10T22:16:06.968Z,101471.31
2023-05-10T22:18:34.285Z,101478.38
2023-05-10T22:21:01.805Z,101486.41
2023-05-10T22:23:28.960Z,101485.63
2023-05-10T22:26:01.268Z,101481.31
2023-05-10T22:28:28.919Z,101491.09
2023-05-10T22:30:56.320Z,101487.59
2023-05-10T22:33:23.675Z,101492.03
2023-05-10T22:35:51.067Z,101482.41
2023-05-10T22:38:18.140Z,101481.44
2023-05-10T22:40:45.695Z,101481.41
2023-05-10T22:43:12.775Z,101492.88
2023-05-10T22:45:40.520Z,101485.81
2023-05-10T22:48:09.546Z,101493.81
2023-05-10T22:50:37.134Z,101483.25
2023-05-10T22:53:05.136Z,101485.97
2023-05-10T22:55:32.500Z,101483.38
2023-05-10T22:57:59.591Z,101483.47
2023-05-10T23:00:27.253Z,101486.16
2023-05-10T23:02:55.112Z,101486.25
2023-05-10T23:05:23.564Z,101484.56
2023-05-10T23:07:53.384Z,101482.00
2023-05-10T23:10:20.910Z,101489.06
2023-05-10T23:12:48.174Z,101488.25
2023-05-10T23:15:15.515Z,101494.50
2023-05-10T23:17:42.640Z,101491.03
2023-05-10T23:20:10.742Z,101493.72
2023-05-10T23:22:37.939Z,101484.94
2023-05-10T23:25:05.912Z,101477.00
2023-05-10T23:27:33.038Z,101485.78
2023-05-10T23:30:00.464Z,101485.78
2023-05-10T23:32:27.550Z,101480.53
2023-05-10T23:34:55.065Z,101486.75
2023-05-10T23:37:22.067Z,101484.13
2023-05-10T23:39:49.437Z,101488.56
2023-05-10T23:42:16.542Z,101478.94
2023-05-10T23:44:44.101Z,101478.06
2023-05-10T23:47:11.180Z,101472.81
2023-05-10T23:49:38.717Z,101473.72
2023-05-10T23:52:05.768Z,101480.75
2023-05-10T23:54:33.054Z,101470.22
2023-05-10T23:57:00.072Z,101475.47
2023-05-10T23:59:27.605Z,101470.22
